Time;durP1;ratioP1;P1;durP2;ratioP2;P2;SDS_P1;SDS_P2;PMS_P1;PMS_P2;Temp;Humidity;BMP_temperature;BMP_pressure;BME280_temperature;BME280_humidity;BME280_pressure;Samples;Min_cycle;Max_cycle;Signal;HPM_P1;HPM_P2
2023/07/08 00:00:21;;;;;;;11.48;6.78;;;487.00;2380.80;;;;;;5089310;28;20055;-62
2023/07/08 00:02:47;;;;;;;9.38;6.80;;;486.90;2380.80;;;;;;5088949;28;20036;-63
2023/07/08 00:05:15;;;;;;;11.85;6.85;;;486.90;2380.80;;;;;;5089202;28;20028;-62
2023/07/08 00:07:42;;;;;;;13.02;7.85;;;487.00;2380.80;;;;;;5089571;28;20032;-62
2023/07/08 00:10:15;;;;;;;9.07;6.32;;;486.90;2380.80;;;;;;5089237;28;20496;-63
2023/07/08 00:12:42;;;;;;;11.07;6.80;;;486.80;2380.80;;;;;;5089424;28;20024;-63
2023/07/08 00:15:08;;;;;;;10.55;6.40;;;486.80;2380.80;;;;;;5089218;28;20089;-63
2023/07/08 00:17:34;;;;;;;7.88;6.47;;;486.70;2380.80;;;;;;5088892;28;20036;-62
2023/07/08 00:19:59;;;;;;;9.18;6.22;;;486.80;2380.80;;;;;;5089628;28;20020;-62
2023/07/08 00:22:25;;;;;;;10.85;6.90;;;486.70;2380.80;;;;;;5088998;28;20069;-64
2023/07/08 00:24:51;;;;;;;11.57;7.10;;;486.70;2380.80;;;;;;5089116;28;20024;-62
2023/07/08 00:27:17;;;;;;;9.48;6.85;;;486.70;2380.80;;;;;;5087439;28;20035;-62
2023/07/08 00:29:43;;;;;;;10.60;6.35;;;486.70;2380.80;;;;;;5089053;28;20047;-62
2023/07/08 00:32:15;;;;;;;10.13;6.60;;;486.60;2380.80;;;;;;5089315;28;20078;-63
2023/07/08 00:34:41;;;;;;;13.23;7.35;;;486.60;2380.80;;;;;;5089401;28;20020;-64
2023/07/08 00:37:11;;;;;;;8.73;7.40;;;486.50;2380.80;;;;;;5089013;28;20031;-63
2023/07/08 00:39:37;;;;;;;9.43;6.90;;;486.50;2380.80;;;;;;5089008;28;20023;-63
2023/07/08 00:42:18;;;;;;;11.27;7.05;;;486.50;2380.80;;;;;;5088701;28;20035;-62
2023/07/08 00:44:44;;;;;;;9.95;7.22;;;486.40;2380.80;;;;;;5090479;28;20024;-62
2023/07/08 00:47:14;;;;;;;10.43;6.57;;;486.40;2380.80;;;;;;5092856;28;20482;-62
2023/07/08 00:49:48;;;;;;;12.52;6.78;;;486.40;2380.80;;;;;;5093507;28;20112;-62
2023/07/08 00:52:22;;;;;;;10.00;6.40;;;486.40;2380.80;;;;;;5092977;28;20113;-62
2023/07/08 00:54:53;;;;;;;9.40;7.03;;;486.40;2380.80;;;;;;5093146;28;20480;-62
2023/07/08 00:57:20;;;;;;;11.05;7.63;;;486.40;2380.80;;;;;;5092811;28;20359;-62
2023/07/08 00:59:54;;;;;;;8.05;6.28;;;486.40;2380.80;;;;;;5092931;28;20024;-65
2023/07/08 01:02:23;;;;;;;8.38;5.95;;;461.70;2380.80;;;;;;5093008;28;20028;-64
2023/07/08 01:04:51;;;;;;;12.02;6.85;;;486.40;2380.80;;;;;;5093411;28;20069;-62
2023/07/08 01:07:21;;;;;;;9.82;6.38;;;461.70;2380.80;;;;;;5090915;28;20063;-62
2023/07/08 01:09:51;;;;;;;11.82;6.25;;;486.40;2380.80;;;;;;5092747;28;20020;-63
2023/07/08 01:12:23;;;;;;;12.75;6.53;;;461.70;2380.80;;;;;;5092177;28;20024;-64
2023/07/08 01:14:53;;;;;;;13.18;7.30;;;461.70;2380.80;;;;;;5092351;28;20028;-63
2023/07/08 01:17:20;;;;;;;11.55;7.10;;;461.70;2380.80;;;;;;5092430;28;20028;-64
2023/07/08 01:19:46;;;;;;;12.52;6.88;;;461.70;2380.80;;;;;;5092273;28;20055;-63
2023/07/08 01:22:12;;;;;;;9.05;7.07;;;461.70;2380.80;;;;;;5092381;28;20067;-62
2023/07/08 01:24:41;;;;;;;10.50;6.45;;;461.70;2380.80;;;;;;5092138;28;20048;-64
2023/07/08 01:27:10;;;;;;;8.68;6.47;;;461.70;2380.80;;;;;;5092229;28;20024;-63
2023/07/08 01:29:36;;;;;;;10.40;6.78;;;461.70;2380.80;;;;;;5091863;28;20024;-63
2023/07/08 01:32:02;;;;;;;10.80;6.68;;;461.70;2380.80;;;;;;5092389;28;20016;-62
2023/07/08 01:34:32;;;;;;;12.82;7.75;;;461.50;2380.80;;;;;;5092050;28;20039;-62
2023/07/08 01:37:01;;;;;;;9.07;5.95;;;461.50;2380.80;;;;;;5092516;28;20103;-62
2023/07/08 01:39:28;;;;;;;10.05;7.28;;;461.40;2380.80;;;;;;5092047;28;20025;-67
2023/07/08 01:41:56;;;;;;;9.90;6.80;;;461.40;2380.80;;;;;;5092044;28;20020;-64
2023/07/08 01:44:29;;;;;;;12.10;6.63;;;461.40;2380.80;;;;;;5091851;28;20496;-62
2023/07/08 01:47:02;;;;;;;11.90;7.32;;;461.40;2380.80;;;;;;5091720;28;20044;-62
2023/07/08 01:49:28;;;;;;;11.38;6.68;;;461.40;2380.80;;;;;;5092006;28;20035;-61
2023/07/08 01:51:55;;;;;;;12.13;6.18;;;461.40;2380.80;;;;;;5091763;28;20162;-61
2023/07/08 01:54:21;;;;;;;8.98;6.15;;;461.40;2380.80;;;;;;5092031;28;20032;-61
2023/07/08 01:56:46;;;;;;;14.50;6.97;;;461.30;2380.80;;;;;;5091564;28;20034;-62
2023/07/08 01:59:12;;;;;;;10.65;6.55;;;461.30;2380.80;;;;;;5091803;28;20024;-62
2023/07/08 02:01:38;;;;;;;10.70;7.28;;;461.30;2380.80;;;;;;5091726;28;20028;-61
2023/07/08 02:04:03;;;;;;;10.05;7.35;;;461.10;2380.80;;;;;;5091250;28;20032;-61
2023/07/08 02:06:29;;;;;;;10.27;7.53;;;460.90;2380.80;;;;;;5091653;28;20085;-60
2023/07/08 02:08:58;;;;;;;9.10;6.47;;;460.80;2380.80;;;;;;5091218;28;20020;-61
2023/07/08 02:11:24;;;;;;;14.68;7.22;;;460.80;2380.80;;;;;;5091266;28;20025;-61
2023/07/08 02:13:49;;;;;;;12.30;7.07;;;436.10;2355.20;;;;;;5091328;28;20031;-62
2023/07/08 02:16:15;;;;;;;12.43;7.22;;;436.10;2355.20;;;;;;5091367;28;20062;-63
2023/07/08 02:18:43;;;;;;;10.98;7.18;;;436.00;2355.20;;;;;;5091513;28;20491;-62
2023/07/08 02:21:08;;;;;;;12.98;7.57;;;436.00;2355.20;;;;;;5091377;28;20466;-60
2023/07/08 02:23:34;;;;;;;12.82;6.70;;;436.10;2355.20;;;;;;5090652;28;20073;-61
2023/07/08 02:26:00;;;;;;;11.93;6.80;;;460.80;2380.80;;;;;;5091412;28;20514;-60
2023/07/08 02:28:26;;;;;;;8.68;6.97;;;460.80;2380.80;;;;;;5090944;28;20024;-61
2023/07/08 02:30:51;;;;;;;11.75;7.65;;;460.80;2380.80;;;;;;5091176;28;20059;-61
2023/07/08 02:33:17;;;;;;;9.38;6.78;;;460.80;2380.80;;;;;;5091139;28;20028;-62
2023/07/08 02:35:44;;;;;;;10.55;6.57;;;460.80;2380.80;;;;;;5091020;28;20052;-61
2023/07/08 02:38:10;;;;;;;9.05;6.95;;;460.80;2380.80;;;;;;5090699;28;20115;-62
2023/07/08 02:40:35;;;;;;;18.27;7.80;;;460.80;2380.80;;;;;;5090891;28;20157;-60
2023/07/08 02:43:01;;;;;;;11.57;7.43;;;436.10;2355.20;;;;;;5090481;28;20410;-62
2023/07/08 02:45:27;;;;;;;10.25;6.45;;;436.00;2355.20;;;;;;5091038;28;20031;-62
2023/07/08 02:47:52;;;;;;;12.70;7.18;;;435.90;2355.20;;;;;;5090193;28;20127;-62
2023/07/08 02:50:18;;;;;;;11.52;7.60;;;435.80;2355.20;;;;;;5090737;28;20032;-61
2023/07/08 02:52:44;;;;;;;10.45;7.40;;;435.80;2355.20;;;;;;5090470;28;20031;-61
2023/07/08 02:55:10;;;;;;;11.82;7.57;;;435.90;2355.20;;;;;;5090524;28;20105;-61
2023/07/08 02:57:35;;;;;;;8.23;6.20;;;435.90;2355.20;;;;;;5090426;28;20101;-62
2023/07/08 03:00:04;;;;;;;9.50;7.15;;;435.90;2355.20;;;;;;5090788;28;20027;-62
2023/07/08 03:02:30;;;;;;;8.80;6.50;;;436.00;2355.20;;;;;;5090580;28;20050;-62
2023/07/08 03:04:58;;;;;;;11.00;6.82;;;436.00;2355.20;;;;;;5090380;28;20445;-61
2023/07/08 03:07:24;;;;;;;10.60;6.78;;;436.10;2355.20;;;;;;5089366;28;20467;-62
2023/07/08 03:09:50;;;;;;;8.68;6.45;;;460.80;2380.80;;;;;;5090168;28;20026;-61
2023/07/08 03:12:16;;;;;;;10.57;7.05;;;460.80;2380.80;;;;;;5089985;28;20020;-63
2023/07/08 03:14:41;;;;;;;9.98;6.97;;;460.80;2380.80;;;;;;5090303;28;20024;-61
2023/07/08 03:17:07;;;;;;;10.02;6.28;;;460.90;2380.80;;;;;;5090204;28;20024;-62
2023/07/08 03:19:33;;;;;;;12.27;6.50;;;460.90;2380.80;;;;;;5089992;28;20500;-61
2023/07/08 03:21:59;;;;;;;8.75;6.32;;;461.00;2380.80;;;;;;5089865;28;20020;-60
2023/07/08 03:24:24;;;;;;;13.23;7.25;;;461.10;2380.80;;;;;;5089605;28;20103;-64
2023/07/08 03:26:54;;;;;;;7.78;6.93;;;461.10;2380.80;;;;;;5089877;28;20111;-61
2023/07/08 03:29:21;;;;;;;10.27;7.10;;;461.10;2380.80;;;;;;5090068;28;20382;-61
2023/07/08 03:31:46;;;;;;;10.90;6.40;;;461.10;2380.80;;;;;;5089378;28;20483;-61
2023/07/08 03:34:15;;;;;;;9.98;6.82;;;461.10;2380.80;;;;;;5089988;28;20052;-62
2023/07/08 03:36:50;;;;;;;9.02;7.22;;;461.10;2380.80;;;;;;5089919;28;20070;-62
2023/07/08 03:39:21;;;;;;;10.35;7.43;;;461.00;2380.80;;;;;;5089514;28;20024;-62
2023/07/08 03:41:48;;;;;;;14.20;7.88;;;461.10;2380.80;;;;;;5089594;28;20032;-65
2023/07/08 03:44:15;;;;;;;15.02;7.60;;;461.10;2380.80;;;;;;5089457;28;20086;-61
2023/07/08 03:46:42;;;;;;;10.73;7.63;;;461.20;2380.80;;;;;;5089479;28;20040;-61
2023/07/08 03:49:09;;;;;;;10.38;6.72;;;461.20;2380.80;;;;;;5089855;28;20031;-62
2023/07/08 03:51:38;;;;;;;11.32;7.07;;;461.20;2380.80;;;;;;5089498;28;20355;-62
2023/07/08 03:54:05;;;;;;;11.27;7.57;;;461.20;2380.80;;;;;;5089237;28;20027;-61
2023/07/08 03:56:31;;;;;;;10.75;7.47;;;461.30;2380.80;;;;;;5089385;28;20568;-61
2023/07/08 03:58:56;;;;;;;11.25;7.88;;;461.30;2380.80;;;;;;5089115;28;20056;-60
2023/07/08 04:01:24;;;;;;;11.07;6.80;;;461.30;2380.80;;;;;;5089199;28;20016;-60
2023/07/08 04:03:55;;;;;;;13.45;7.25;;;461.40;2380.80;;;;;;5089370;28;20035;-61
2023/07/08 04:06:21;;;;;;;11.13;7.40;;;461.40;2380.80;;;;;;5089391;28;20020;-61
2023/07/08 04:08:47;;;;;;;10.80;7.30;;;461.50;2380.80;;;;;;5089164;28;20022;-61
2023/07/08 04:11:15;;;;;;;11.73;6.88;;;461.50;2380.80;;;;;;5089445;28;20567;-61
2023/07/08 04:13:41;;;;;;;9.63;6.65;;;461.60;2380.80;;;;;;5089357;28;20027;-61
2023/07/08 04:16:19;;;;;;;12.50;6.75;;;461.60;2380.80;;;;;;5089444;28;20367;-63
2023/07/08 04:18:45;;;;;;;11.23;6.50;;;461.70;2380.80;;;;;;5089142;28;20039;-61
2023/07/08 04:21:11;;;;;;;10.38;7.03;;;461.70;2380.80;;;;;;5089242;28;20099;-61
2023/07/08 04:23:36;;;;;;;9.82;6.95;;;486.50;2380.80;;;;;;5088957;28;20038;-66
2023/07/08 04:26:02;;;;;;;11.07;6.97;;;486.40;2380.80;;;;;;5088559;28;20028;-61
2023/07/08 04:28:28;;;;;;;11.52;7.28;;;486.50;2380.80;;;;;;5088698;28;20059;-61
2023/07/08 04:30:53;;;;;;;9.73;7.00;;;486.50;2380.80;;;;;;5089029;28;20020;-62
2023/07/08 04:33:19;;;;;;;9.82;6.53;;;486.60;2380.80;;;;;;5089105;28;20084;-66
2023/07/08 04:35:45;;;;;;;14.02;7.53;;;486.70;2380.80;;;;;;5088874;28;20023;-68
2023/07/08 04:38:21;;;;;;;14.65;6.45;;;;;;;;;;5089304;28;20035;-61
2023/07/08 04:40:50;;;;;;;9.52;7.00;;;487.00;2380.80;;;;;;5088729;28;20016;-61
2023/07/08 04:43:17;;;;;;;10.10;6.30;;;665.60;2432.00;;;;;;5088952;28;20129;-63
2023/07/08 04:45:45;;;;;;;12.38;7.20;;;717.10;2124.80;;;;;;5088686;28;20024;-63
2023/07/08 04:48:14;;;;;;;8.18;6.75;;;743.00;1971.20;;;;;;5089023;28;20143;-61
2023/07/08 04:50:45;;;;;;;12.32;7.85;;;793.70;1843.20;;;;;;5089018;28;20024;-61
2023/07/08 04:53:12;;;;;;;8.75;7.13;;;819.60;1740.80;;;;;;5089243;28;20028;-61
2023/07/08 04:56:07;;;;;;;9.57;6.75;;;845.00;1689.60;;;;;;5089253;28;20032;-62
2023/07/08 04:58:33;;;;;;;12.13;8.15;;;870.80;1612.80;;;;;;5026250;28;20124;-62
2023/07/08 05:00:59;;;;;;;8.45;6.40;;;871.30;1536.00;;;;;;5026290;28;20097;-61
2023/07/08 05:03:24;;;;;;;8.25;7.25;;;896.50;1484.80;;;;;;5026285;28;20053;-62
2023/07/08 05:05:50;;;;;;;12.65;7.85;;;921.60;1484.80;;;;;;5026440;28;20415;-63
2023/07/08 05:08:16;;;;;;;9.40;8.23;;;922.50;1433.60;;;;;;5026123;28;20034;-67
2023/07/08 05:10:43;;;;;;;13.75;8.80;;;922.30;1433.60;;;;;;5026389;28;20029;-65
2023/07/08 05:13:08;;;;;;;10.18;8.55;;;922.50;1408.00;;;;;;5026262;28;20542;-64
2023/07/08 05:15:35;;;;;;;10.00;8.07;;;947.20;1382.40;;;;;;5026044;28;20120;-62
2023/07/08 05:18:00;;;;;;;9.40;8.45;;;972.90;1356.80;;;;;;5026102;28;20565;-63
2023/07/08 05:20:26;;;;;;;9.55;8.55;;;973.40;1331.20;;;;;;5026222;28;20029;-67
2023/07/08 05:22:52;;;;;;;9.38;8.40;;;998.50;1331.20;;;;;;5025924;28;20483;-63
2023/07/08 05:25:20;;;;;;;8.93;8.10;;;998.80;1280.00;;;;;;5025969;28;20045;-65
2023/07/08 05:27:46;;;;;;;9.65;8.63;;;998.90;1280.00;;;;;;5025903;28;20037;-64
2023/07/08 05:30:16;;;;;;;10.63;8.45;;;1024.60;1228.80;;;;;;5027033;28;20029;-64
2023/07/08 05:32:42;;;;;;;9.75;8.85;;;999.30;1254.40;;;;;;5029733;28;20084;-71
2023/07/08 05:35:08;;;;;;;10.07;9.07;;;1049.80;1228.80;;;;;;5061856;28;20032;-66
2023/07/08 05:37:34;;;;;;;10.85;9.63;;;1049.60;1228.80;;;;;;5092195;28;20020;-65
2023/07/08 05:40:02;;;;;;;10.65;9.55;;;1050.30;1203.20;;;;;;5092385;28;20077;-65
2023/07/08 05:42:28;;;;;;;11.25;10.25;;;1075.90;1177.60;;;;;;5092045;28;20111;-65
2023/07/08 05:44:54;;;;;;;12.02;9.95;;;;;;;;;;5091855;28;20024;-65
2023/07/08 05:47:21;;;;;;;11.68;10.02;;;1101.40;1152.00;;;;;;5091496;28;20071;-64
2023/07/08 05:49:47;;;;;;;11.70;10.68;;;1126.40;1126.40;;;;;;5092287;28;20111;-67
2023/07/08 05:52:13;;;;;;;12.40;11.13;;;1126.70;1126.40;;;;;;5091572;28;20473;-65
2023/07/08 05:54:40;;;;;;;11.55;10.35;;;1126.60;1126.40;;;;;;5092216;28;20062;-65
2023/07/08 05:57:08;;;;;;;12.57;11.27;;;1101.70;1126.40;;;;;;5091497;28;20026;-65
2023/07/08 05:59:35;;;;;;;11.40;10.40;;;1152.00;1075.20;;;;;;5091565;28;20059;-65
2023/07/08 06:02:01;;;;;;;11.52;10.52;;;1152.00;1100.80;;;;;;5091507;28;20035;-63
2023/07/08 06:04:28;;;;;;;12.35;11.25;;;1177.60;1049.60;;;;;;5092072;28;20389;-63
2023/07/08 06:06:53;;;;;;;12.50;11.40;;;1152.40;1049.60;;;;;;5091333;28;20020;-63
2023/07/08 06:09:19;;;;;;;13.20;11.88;;;1152.60;1049.60;;;;;;5091933;28;20355;-63
2023/07/08 06:11:45;;;;;;;11.38;10.55;;;1152.00;1075.20;;;;;;5091205;28;20085;-63
2023/07/08 06:14:10;;;;;;;13.00;12.00;;;1152.50;1049.60;;;;;;5091554;28;20119;-62
2023/07/08 06:16:36;;;;;;;12.23;11.23;;;1152.90;1049.60;;;;;;5091221;28;20028;-64
2023/07/08 06:19:02;;;;;;;13.02;11.77;;;1178.10;1024.00;;;;;;5091555;28;20024;-62
2023/07/08 06:21:28;;;;;;;13.32;12.10;;;1178.00;1024.00;;;;;;5091486;28;20445;-65
2023/07/08 06:23:54;;;;;;;13.52;12.40;;;1203.80;1024.00;;;;;;5091277;28;20128;-62
2023/07/08 06:26:19;;;;;;;14.48;13.18;;;1178.50;1024.00;;;;;;5091405;28;20450;-62
2023/07/08 06:28:45;;;;;;;12.75;11.75;;;1203.80;1024.00;;;;;;5091150;28;20101;-63
2023/07/08 06:31:11;;;;;;;13.27;12.07;;;1203.90;1024.00;;;;;;5091310;28;20042;-63
2023/07/08 06:33:36;;;;;;;15.60;14.50;;;1203.90;998.40;;;;;;5091154;28;20024;-64
2023/07/08 06:36:02;;;;;;;13.05;11.85;;;1229.40;998.40;;;;;;5090985;28;20497;-65
2023/07/08 06:38:28;;;;;;;15.20;14.18;;;1229.50;972.80;;;;;;5091126;28;20020;-62
2023/07/08 06:40:54;;;;;;;13.43;12.38;;;1254.60;998.40;;;;;;5090400;28;20028;-62
2023/07/08 06:43:19;;;;;;;13.18;12.18;;;1255.00;972.80;;;;;;5089804;28;20036;-64
2023/07/08 06:45:45;;;;;;;14.38;13.18;;;1254.40;998.40;;;;;;5090611;28;20652;-66
2023/07/08 06:48:11;;;;;;;15.82;14.30;;;1255.00;972.80;;;;;;5090690;28;20075;-62
2023/07/08 06:50:38;;;;;;;13.80;12.80;;;1255.10;972.80;;;;;;5091057;28;20032;-65
2023/07/08 06:53:04;;;;;;;15.27;13.80;;;1254.80;998.40;;;;;;5090975;28;20435;-62
2023/07/08 06:55:30;;;;;;;14.40;12.98;;;1254.80;972.80;;;;;;5090725;28;20055;-65
2023/07/08 06:57:55;;;;;;;13.43;12.52;;;1280.20;947.20;;;;;;5090169;28;20077;-62
2023/07/08 07:00:21;;;;;;;14.13;12.93;;;1255.00;947.20;;;;;;5090462;28;20020;-62
2023/07/08 07:02:47;;;;;;;15.00;13.63;;;1254.80;947.20;;;;;;5090557;28;20043;-63
2023/07/08 07:05:12;;;;;;;13.95;12.68;;;1280.00;947.20;;;;;;5090162;28;20103;-62
2023/07/08 07:07:38;;;;;;;14.07;13.13;;;1280.40;947.20;;;;;;5090725;28;20367;-62
2023/07/08 07:10:05;;;;;;;14.77;13.63;;;1280.00;947.20;;;;;;5090232;28;20502;-64
2023/07/08 07:12:31;;;;;;;14.23;13.07;;;1280.40;921.60;;;;;;5090365;28;20028;-68
2023/07/08 07:14:57;;;;;;;14.15;12.95;;;1255.30;921.60;;;;;;5090301;28;20054;-68
2023/07/08 07:17:24;;;;;;;14.73;13.52;;;1255.10;921.60;;;;;;5090105;28;20032;-66
2023/07/08 07:19:49;;;;;;;14.52;13.32;;;1305.60;896.00;;;;;;5090421;28;20111;-65
2023/07/08 07:22:15;;;;;;;14.48;13.38;;;1305.90;896.00;;;;;;5090056;28;20517;-62
2023/07/08 07:24:41;;;;;;;13.57;12.63;;;1280.40;896.00;;;;;;5090263;28;20070;-62
2023/07/08 07:27:09;;;;;;;15.82;13.95;;;1280.90;896.00;;;;;;5090210;28;20024;-63
2023/07/08 07:29:50;;;;;;;14.05;13.02;;;1280.50;896.00;;;;;;5089837;28;20028;-62
2023/07/08 07:32:18;;;;;;;14.77;13.35;;;1280.50;896.00;;;;;;5089955;28;20505;-63
2023/07/08 07:34:47;;;;;;;14.63;13.20;;;1280.70;896.00;;;;;;5089801;28;20477;-63
2023/07/08 07:37:14;;;;;;;13.32;12.23;;;1280.40;921.60;;;;;;5090265;28;20115;-62
2023/07/08 07:39:40;;;;;;;13.82;12.70;;;1280.70;896.00;;;;;;5089719;28;20073;-65
2023/07/08 07:42:07;;;;;;;12.95;11.88;;;1280.40;921.60;;;;;;5089649;28;20061;-63
2023/07/08 07:44:33;;;;;;;13.38;12.32;;;1306.00;870.40;;;;;;5089786;28;20107;-63
2023/07/08 07:46:58;;;;;;;13.50;12.32;;;1331.20;896.00;;;;;;5089173;28;20197;-62
2023/07/08 07:49:24;;;;;;;14.27;13.15;;;1331.40;870.40;;;;;;5089865;28;20020;-62
2023/07/08 07:51:50;;;;;;;15.30;13.85;;;1331.60;870.40;;;;;;5089671;28;20020;-63
2023/07/08 07:54:16;;;;;;;14.25;13.05;;;1306.20;896.00;;;;;;5089719;28;20028;-63
2023/07/08 07:56:42;;;;;;;14.77;13.50;;;1331.60;870.40;;;;;;5089354;28;20373;-63
2023/07/08 07:59:07;;;;;;;13.57;12.68;;;1331.60;870.40;;;;;;5089539;28;20024;-63
2023/07/08 08:01:33;;;;;;;14.60;13.38;;;1331.60;870.40;;;;;;5089428;28;20031;-63
2023/07/08 08:03:59;;;;;;;15.02;13.82;;;1306.50;844.80;;;;;;5089415;28;20122;-63
2023/07/08 08:06:24;;;;;;;12.63;11.73;;;1305.60;870.40;;;;;;5089575;28;20028;-63
2023/07/08 08:08:50;;;;;;;13.75;12.50;;;1280.90;896.00;;;;;;5089304;28;20127;-63
2023/07/08 08:11:16;;;;;;;12.88;11.88;;;1280.00;896.00;;;;;;5089246;28;20024;-63
2023/07/08 08:13:42;;;;;;;13.68;12.43;;;1254.80;921.60;;;;;;5088999;28;20046;-63
2023/07/08 08:16:08;;;;;;;12.48;11.52;;;1229.70;947.20;;;;;;5089276;28;20028;-62
2023/07/08 08:18:34;;;;;;;12.90;11.88;;;1229.30;947.20;;;;;;5089073;28;20520;-61
2023/07/08 08:21:00;;;;;;;12.57;11.20;;;1126.80;1024.00;;;;;;5089313;28;20024;-61
2023/07/08 08:23:26;;;;;;;10.43;9.52;;;1075.40;1049.60;;;;;;5088866;28;20103;-61
2023/07/08 08:25:52;;;;;;;8.93;8.07;;;1024.70;1075.20;;;;;;5089201;28;20061;-64
2023/07/08 08:28:17;;;;;;;10.20;8.55;;;998.80;1152.00;;;;;;5089078;28;20024;-65
2023/07/08 08:30:50;;;;;;;11.70;8.27;;;972.80;1203.20;;;;;;5089102;28;20024;-64
2023/07/08 08:33:16;;;;;;;8.52;7.72;;;947.20;1203.20;;;;;;5088830;28;20428;-63
2023/07/08 08:35:43;;;;;;;8.13;7.40;;;921.70;1254.40;;;;;;5089340;28;20024;-63
2023/07/08 08:38:09;;;;;;;8.45;7.68;;;896.80;1228.80;;;;;;5089347;28;20057;-67
2023/07/08 08:40:34;;;;;;;8.45;7.60;;;871.30;1254.40;;;;;;5088986;28;20103;-67
2023/07/08 08:43:02;;;;;;;15.50;7.70;;;870.70;1305.60;;;;;;5088746;28;20067;-69
2023/07/08 08:45:32;;;;;;;8.43;7.63;;;845.70;1305.60;;;;;;5089079;28;20040;-66
2023/07/08 08:48:05;;;;;;;9.60;6.97;;;845.40;1331.20;;;;;;5088452;28;20044;-65
2023/07/08 08:50:33;;;;;;;11.98;6.85;;;820.10;1305.60;;;;;;5088843;28;20108;-68
2023/07/08 08:53:05;;;;;;;9.88;7.00;;;820.10;1280.00;;;;;;5088906;28;20567;-63
2023/07/08 08:55:31;;;;;;;8.63;6.90;;;819.80;1331.20;;;;;;5088841;28;20020;-68
2023/07/08 08:58:13;;;;;;;14.13;7.13;;;819.70;1331.20;;;;;;5088692;28;20534;-65
2023/07/08 09:00:59;;;;;;;11.23;7.17;;;819.30;1356.80;;;;;;5088761;28;20024;-64
2023/07/08 09:03:59;;;;;;;7.65;6.68;;;819.60;1356.80;;;;;;5088562;28;20410;-67
2023/07/08 09:06:31;;;;;;;7.38;6.38;;;819.80;1382.40;;;;;;5088107;28;20386;-64
2023/07/08 09:09:02;;;;;;;8.02;6.88;;;819.60;1382.40;;;;;;5092387;28;20023;-64
2023/07/08 09:11:53;;;;;;;8.82;7.15;;;819.70;1408.00;;;;;;5092601;28;20039;-63
2023/07/08 09:14:28;;;;;;;8.32;6.75;;;819.70;1356.80;;;;;;5030057;28;20450;-63
2023/07/08 09:17:41;;;;;;;8.95;7.03;;;819.60;1356.80;;;;;;5029779;28;20537;-63
2023/07/08 09:20:16;;;;;;;7.68;6.57;;;819.50;1382.40;;;;;;4990560;28;20050;-64
2023/07/08 09:22:47;;;;;;;7.75;6.50;;;794.50;1408.00;;;;;;4990561;28;20038;-63
2023/07/08 09:25:16;;;;;;;13.10;6.57;;;794.50;1382.40;;;;;;4990622;28;20066;-63
2023/07/08 09:27:42;;;;;;;6.97;6.28;;;794.50;1408.00;;;;;;4990642;28;20428;-64
2023/07/08 09:30:14;;;;;;;7.70;6.00;;;794.30;1356.80;;;;;;4990477;28;20030;-63
2023/07/08 09:32:40;;;;;;;11.38;6.38;;;794.20;1433.60;;;;;;4990563;28;20069;-63
2023/07/08 09:35:08;;;;;;;6.93;5.97;;;794.00;1408.00;;;;;;4990411;28;20038;-69
2023/07/08 09:37:36;;;;;;;9.60;6.90;;;794.00;1433.60;;;;;;4990215;28;20485;-69
2023/07/08 09:40:30;;;;;;;10.43;6.40;;;794.10;1459.20;;;;;;4990203;28;20018;-64
2023/07/08 09:43:02;;;;;;;7.25;6.22;;;794.00;1484.80;;;;;;4989718;28;20494;-68
2023/07/08 09:45:29;;;;;;;8.57;6.47;;;794.00;1510.40;;;;;;4990266;28;20044;-67
2023/07/08 09:48:01;;;;;;;8.10;6.45;;;794.30;1433.60;;;;;;4989699;28;20446;-69
2023/07/08 09:50:31;;;;;;;9.25;6.18;;;794.00;1433.60;;;;;;4996692;28;20084;-63
2023/07/08 09:53:00;;;;;;;8.52;6.22;;;793.80;1484.80;;;;;;5049190;28;20029;-65
2023/07/08 09:55:28;;;;;;;9.20;6.38;;;793.70;1459.20;;;;;;5051628;28;20025;-63
2023/07/08 09:57:56;;;;;;;8.07;6.13;;;768.80;1408.00;;;;;;5091449;28;20024;-64
2023/07/08 10:00:51;;;;;;;7.00;5.82;;;768.70;1433.60;;;;;;5091906;28;20070;-65
2023/07/08 10:03:21;;;;;;;9.15;6.63;;;768.40;1459.20;;;;;;5089946;28;20538;-64
2023/07/08 10:05:49;;;;;;;6.97;6.10;;;768.60;1459.20;;;;;;5078581;28;20063;-63
2023/07/08 10:08:19;;;;;;;9.48;5.95;;;768.70;1484.80;;;;;;5091559;28;20031;-63
2023/07/08 10:10:47;;;;;;;6.97;5.60;;;768.80;1484.80;;;;;;5091573;28;20111;-69
2023/07/08 10:13:22;;;;;;;8.25;6.07;;;768.80;1408.00;;;;;;5091496;28;20366;-64
2023/07/08 10:16:09;;;;;;;6.85;5.97;;;768.70;1382.40;;;;;;5091478;28;20374;-68
2023/07/08 10:18:34;;;;;;;10.93;6.53;;;768.80;1408.00;;;;;;5091404;28;20028;-65
2023/07/08 10:21:15;;;;;;;8.45;5.80;;;768.70;1408.00;;;;;;5091218;28;20020;-64
2023/07/08 10:23:59;;;;;;;7.50;5.90;;;768.60;1510.40;;;;;;5091402;28;20032;-70
2023/07/08 10:26:30;;;;;;;6.63;5.22;;;768.50;1433.60;;;;;;5091103;28;20348;-69
2023/07/08 10:29:27;;;;;;;7.95;5.72;;;768.40;1408.00;;;;;;5091282;28;20161;-70
2023/07/08 10:32:12;;;;;;;10.43;5.85;;;768.10;1408.00;;;;;;5078569;28;20012;-65
2023/07/08 10:34:46;;;;;;;7.28;6.15;;;768.10;1408.00;;;;;;5091164;28;20016;-64
2023/07/08 10:37:33;;;;;;;6.03;5.43;;;768.20;1433.60;;;;;;5090975;28;20043;-63
2023/07/08 10:40:18;;;;;;;6.72;5.22;;;768.20;1433.60;;;;;;5091057;28;20061;-64
2023/07/08 10:43:15;;;;;;;8.82;5.30;;;768.40;1433.60;;;;;;5090450;28;20020;-63
2023/07/08 10:46:21;;;;;;;8.52;5.50;;;768.20;1382.40;;;;;;5090754;28;20028;-63
2023/07/08 10:49:06;;;;;;;7.80;5.55;;;768.10;1382.40;;;;;;5088981;28;20048;-63
2023/07/08 10:51:53;;;;;;;6.57;5.88;;;768.10;1382.40;;;;;;5090892;28;20032;-69
2023/07/08 10:54:55;;;;;;;8.18;5.88;;;743.30;1356.80;;;;;;5090797;28;20020;-64
2023/07/08 10:57:33;;;;;;;8.90;5.93;;;768.00;1459.20;;;;;;5090795;28;20024;-65
2023/07/08 11:00:22;;;;;;;9.45;5.25;;;743.30;1408.00;;;;;;5090468;28;20031;-63
2023/07/08 11:03:16;;;;;;;8.00;4.97;;;743.30;1408.00;;;;;;5027908;28;20369;-63
2023/07/08 11:05:45;;;;;;;7.30;5.13;;;743.30;1382.40;;;;;;5028152;28;20491;-70
2023/07/08 11:08:45;;;;;;;7.07;5.10;;;743.10;1408.00;;;;;;5028222;28;20026;-64
2023/07/08 11:11:29;;;;;;;7.82;6.20;;;743.20;1433.60;;;;;;4988670;28;20543;-63
2023/07/08 11:14:23;;;;;;;5.90;4.88;;;743.20;1382.40;;;;;;4988548;28;20113;-70
2023/07/08 11:17:29;;;;;;;7.63;4.68;;;743.20;1408.00;;;;;;4984388;28;20031;-64
2023/07/08 11:20:03;;;;;;;7.10;5.20;;;743.10;1433.60;;;;;;4911319;29;20507;-63
2023/07/08 11:22:33;;;;;;;8.00;5.63;;;743.30;1459.20;;;;;;4911594;29;20044;-64
2023/07/08 11:25:02;;;;;;;5.43;4.63;;;768.00;1459.20;;;;;;4911617;29;20046;-65
2023/07/08 11:27:41;;;;;;;10.43;4.40;;;743.30;1356.80;;;;;;4911035;29;20562;-63
2023/07/08 11:30:15;;;;;;;7.65;5.03;;;743.30;1382.40;;;;;;4911069;29;20052;-64
2023/07/08 11:32:45;;;;;;;9.30;5.13;;;743.10;1433.60;;;;;;4911803;29;20036;-63
2023/07/08 11:35:27;;;;;;;5.78;4.65;;;743.00;1382.40;;;;;;4911572;29;20072;-63
2023/07/08 11:37:53;;;;;;;7.32;4.72;;;743.00;1356.80;;;;;;4911102;29;20095;-63
2023/07/08 11:40:21;;;;;;;6.72;5.55;;;743.00;1408.00;;;;;;4934397;29;20410;-65
2023/07/08 11:42:52;;;;;;;6.20;4.95;;;742.90;1331.20;;;;;;4949130;29;20063;-62
2023/07/08 11:45:18;;;;;;;7.93;4.63;;;743.00;1433.60;;;;;;4949505;29;20426;-63
2023/07/08 11:47:48;;;;;;;6.93;5.32;;;743.10;1408.00;;;;;;4976716;28;20065;-63
2023/07/08 11:50:30;;;;;;;7.75;5.60;;;743.10;1382.40;;;;;;5007837;28;20097;-63
2023/07/08 11:53:03;;;;;;;6.43;4.97;;;742.90;1382.40;;;;;;5006385;28;20025;-63
2023/07/08 11:55:38;;;;;;;8.90;4.95;;;742.90;1408.00;;;;;;5051368;28;20072;-64
2023/07/08 11:58:29;;;;;;;7.35;4.85;;;743.10;1382.40;;;;;;5088729;28;20023;-63
2023/07/08 12:01:19;;;;;;;6.38;5.18;;;743.10;1408.00;;;;;;5088725;28;20414;-64
2023/07/08 12:03:55;;;;;;;6.15;4.78;;;742.90;1433.60;;;;;;5089450;28;20117;-63
2023/07/08 12:06:47;;;;;;;8.55;5.10;;;742.90;1408.00;;;;;;5089543;28;20024;-63
2023/07/08 12:09:14;;;;;;;6.50;4.63;;;743.00;1408.00;;;;;;5089493;28;20028;-64
2023/07/08 12:11:44;;;;;;;10.45;4.97;;;743.10;1382.40;;;;;;5088995;28;20024;-63
2023/07/08 12:14:11;;;;;;;8.82;5.00;;;743.10;1382.40;;;;;;5089517;28;20024;-63
2023/07/08 12:16:37;;;;;;;6.43;5.07;;;742.80;1382.40;;;;;;5089361;28;20024;-66
2023/07/08 12:19:04;;;;;;;5.97;4.57;;;742.80;1433.60;;;;;;5089265;28;20081;-63
2023/07/08 12:21:35;;;;;;;5.85;4.95;;;742.60;1382.40;;;;;;5089266;28;20020;-63
2023/07/08 12:24:05;;;;;;;10.25;5.70;;;742.70;1382.40;;;;;;5089391;28;20035;-63